Terminal Aerodrome Forecast
Issued by NWS North Platte, NE

Home | Current Version | Previous Version | Graphics & Text | Print | Product List | Glossary On
Versions: 1 2 3 4 5 6 7 8 9 10 11 12 13 14 15 16 17 18 19 20 21 22
257
FTUS43 KLBF 232320
TAFVTN
TAF
KVTN 232320Z 2400/2424 04008KT P6SM VCSH OVC008
     FM240300 02006KT 6SM -SHRA BR OVC003
     FM241200 34007KT 3SM -SHRA BR OVC003
     FM241700 33009KT 6SM SHRA BR OVC008=

USA.gov is the U.S. government's official web portal to all federal, state and local government web resources and services.